Time;durP1;ratioP1;P1;durP2;ratioP2;P2;SDS_P1;SDS_P2;PMS_P1;PMS_P2;Temp;Humidity;BMP_temperature;BMP_pressure;BME280_temperature;BME280_humidity;BME280_pressure;Samples;Min_cycle;Max_cycle;Signal;HPM_P1;HPM_P2
2022/05/07 00:00:06;;;;;;;17.88;8.77;;;15.60;68.60;;;;;;5099892;28;20032;-78
2022/05/07 00:02:32;;;;;;;14.93;7.53;;;15.60;68.50;;;;;;5096823;28;20043;-78
2022/05/07 00:04:58;;;;;;;17.98;7.35;;;15.60;68.70;;;;;;5080088;28;20476;-78
2022/05/07 00:07:24;;;;;;;17.48;8.07;;;15.60;68.70;;;;;;5079279;28;20499;-78
2022/05/07 00:09:50;;;;;;;15.35;7.70;;;15.60;68.60;;;;;;5095996;28;20027;-74
2022/05/07 00:12:16;;;;;;;15.43;7.40;;;15.60;68.70;;;;;;5075969;28;20051;-78
2022/05/07 00:14:42;;;;;;;11.38;6.18;;;15.60;68.70;;;;;;5093861;28;20042;-78
2022/05/07 00:19:53;;;;;;;11.98;6.22;;;15.60;68.90;;;;;;5098146;28;20081;-75
2022/05/07 00:22:19;;;;;;;11.48;6.07;;;15.60;68.80;;;;;;5078734;28;20112;-78
2022/05/07 00:24:45;;;;;;;10.02;5.88;;;15.60;68.80;;;;;;5104086;28;20048;-74
2022/05/07 00:27:13;;;;;;;11.77;6.07;;;15.50;68.90;;;;;;5073312;28;20056;-74
2022/05/07 00:29:40;;;;;;;10.55;5.63;;;15.40;68.50;;;;;;5076523;28;20393;-78
2022/05/07 00:32:06;;;;;;;8.68;4.80;;;15.40;69.30;;;;;;5094059;28;20040;-74
2022/05/07 00:34:32;;;;;;;10.55;6.13;;;15.30;69.40;;;;;;5092923;28;20055;-78
2022/05/07 00:36:59;;;;;;;11.25;6.53;;;15.40;70.40;;;;;;5059023;28;20032;-78
2022/05/07 00:39:25;;;;;;;11.23;5.35;;;15.30;69.40;;;;;;5075552;28;20040;-74
2022/05/07 00:41:52;;;;;;;9.77;5.90;;;15.30;69.40;;;;;;5090579;28;20035;-78
2022/05/07 00:44:20;;;;;;;12.27;6.15;;;15.30;69.20;;;;;;5114316;28;20040;-78
2022/05/07 00:46:48;;;;;;;9.93;5.35;;;15.30;69.20;;;;;;5079014;28;20043;-79
2022/05/07 00:49:14;;;;;;;12.25;6.55;;;15.30;69.00;;;;;;5096078;28;20036;-79
2022/05/07 00:51:41;;;;;;;12.82;5.57;;;15.40;68.90;;;;;;5078608;28;20031;-78
2022/05/07 00:54:09;;;;;;;13.88;6.32;;;15.40;69.00;;;;;;5079043;28;20031;-75
2022/05/07 00:56:37;;;;;;;12.35;5.95;;;15.40;69.00;;;;;;5094831;28;20404;-78
2022/05/07 00:59:05;;;;;;;10.52;5.68;;;15.40;69.00;;;;;;5079202;28;20042;-78
2022/05/07 01:01:31;;;;;;;13.27;6.78;;;15.40;69.00;;;;;;5095223;28;20480;-74
2022/05/07 01:03:58;;;;;;;13.73;6.60;;;15.40;69.20;;;;;;5078950;28;20403;-79
2022/05/07 01:06:24;;;;;;;11.20;5.53;;;15.40;69.10;;;;;;5078269;28;20024;-78
2022/05/07 01:08:50;;;;;;;;;;;15.40;69.10;;;;;;5096390;28;20070;-78
2022/05/07 01:11:18;;;;;;;10.68;6.07;;;15.40;68.70;;;;;;5074282;28;19916;-79
2022/05/07 01:13:46;;;;;;;11.38;5.22;;;15.30;68.90;;;;;;5075398;28;20063;-79
2022/05/07 01:16:13;;;;;;;11.65;5.55;;;15.30;69.20;;;;;;5074887;28;20032;-74
2022/05/07 01:18:40;;;;;;;11.32;5.70;;;15.30;69.40;;;;;;5108430;28;20042;-79
2022/05/07 01:21:28;;;;;;;11.25;6.45;;;15.20;69.40;;;;;;5113081;28;20118;-78
2022/05/07 01:23:55;;;;;;;9.65;5.55;;;15.20;69.70;;;;;;5095632;28;20115;-74
2022/05/07 01:26:23;;;;;;;10.98;5.00;;;15.10;70.10;;;;;;5094070;28;20102;-75
2022/05/07 01:28:50;;;;;;;10.15;5.70;;;15.00;69.70;;;;;;5113657;28;20031;-74
2022/05/07 01:31:18;;;;;;;8.23;5.03;;;15.00;70.20;;;;;;5094854;28;20119;-75
2022/05/07 01:33:44;;;;;;;9.95;5.28;;;15.00;70.20;;;;;;5095215;28;20623;-75
2022/05/07 01:36:13;;;;;;;8.48;5.70;;;15.00;70.20;;;;;;5094930;28;20447;-79
2022/05/07 01:38:39;;;;;;;11.60;5.93;;;15.00;70.10;;;;;;5095421;28;20488;-79
2022/05/07 01:41:05;;;;;;;12.50;5.70;;;15.00;70.10;;;;;;5112123;28;20034;-75
2022/05/07 01:43:32;;;;;;;9.45;5.10;;;15.00;69.90;;;;;;5094987;28;20492;-78
2022/05/07 01:49:01;;;;;;;9.85;4.90;;;15.00;70.10;;;;;;5097951;28;20523;-75
2022/05/07 01:51:27;;;;;;;12.25;6.35;;;14.90;70.00;;;;;;5112868;28;20028;-75
2022/05/07 01:53:53;;;;;;;11.13;5.57;;;14.90;70.10;;;;;;5113261;28;20093;-74
2022/05/07 01:56:19;;;;;;;10.63;5.82;;;14.90;70.20;;;;;;5093686;28;20038;-79
2022/05/07 01:58:46;;;;;;;11.07;5.53;;;15.00;70.20;;;;;;5094867;28;20548;-77
2022/05/07 02:01:13;;;;;;;10.68;4.97;;;15.00;70.20;;;;;;5077530;28;20032;-79
2022/05/07 02:03:39;;;;;;;9.75;5.88;;;14.90;70.20;;;;;;5113068;28;20032;-79
2022/05/07 02:06:05;;;;;;;11.77;6.13;;;14.90;70.20;;;;;;5094430;28;20034;-75
2022/05/07 02:08:31;;;;;;;;;;;14.90;69.60;;;;;;5113549;28;20063;-78
2022/05/07 02:11:00;;;;;;;12.38;6.25;;;14.90;69.70;;;;;;5093389;28;19959;-76
2022/05/07 02:13:27;;;;;;;10.88;6.45;;;14.90;70.00;;;;;;5095156;28;20439;-75
2022/05/07 02:15:54;;;;;;;12.20;5.88;;;14.90;70.00;;;;;;5094366;28;20088;-78
2022/05/07 02:18:20;;;;;;;12.27;6.28;;;14.90;69.60;;;;;;5112825;28;20619;-75
2022/05/07 02:20:47;;;;;;;;;;;14.90;70.30;;;;;;5094690;28;20373;-79
2022/05/07 02:23:13;;;;;;;10.20;5.77;;;14.90;69.80;;;;;;5094965;28;19911;-75
2022/05/07 02:25:39;;;;;;;13.48;6.40;;;14.90;70.00;;;;;;5094059;28;20039;-75
2022/05/07 02:28:05;;;;;;;12.13;6.00;;;14.90;70.20;;;;;;5094029;28;20039;-78
2022/05/07 02:30:31;;;;;;;10.90;5.93;;;14.80;70.10;;;;;;5094301;28;20060;-78
2022/05/07 02:32:57;;;;;;;12.18;6.55;;;14.80;70.20;;;;;;5094982;28;20044;-76
2022/05/07 02:35:23;;;;;;;11.65;6.32;;;14.80;70.40;;;;;;5077212;28;20032;-78
2022/05/07 02:37:49;;;;;;;11.00;5.25;;;14.80;70.60;;;;;;5077797;28;20040;-75
2022/05/07 02:40:15;;;;;;;10.95;5.25;;;14.70;70.80;;;;;;5094115;28;20510;-76
2022/05/07 02:42:42;;;;;;;10.68;5.43;;;14.70;70.80;;;;;;5093645;28;20055;-78
2022/05/07 02:45:11;;;;;;;10.27;5.05;;;14.60;70.80;;;;;;5112374;28;20081;-76
2022/05/07 02:47:40;;;;;;;9.63;5.25;;;14.60;70.80;;;;;;5113073;28;20121;-78
2022/05/07 02:50:08;;;;;;;10.85;5.03;;;14.60;70.90;;;;;;5096402;28;20024;-76
2022/05/07 02:52:37;;;;;;;11.50;5.47;;;14.60;70.80;;;;;;5098415;28;20427;-79
2022/05/07 02:55:21;;;;;;;11.48;5.47;;;14.60;70.80;;;;;;5081259;28;20031;-76
2022/05/07 02:57:48;;;;;;;11.23;5.85;;;14.60;71.00;;;;;;5115543;28;20036;-79
2022/05/07 03:00:16;;;;;;;10.05;5.55;;;14.60;70.90;;;;;;5080976;28;20032;-79
2022/05/07 03:02:42;;;;;;;10.18;5.30;;;14.60;70.70;;;;;;5116695;28;20059;-76
2022/05/07 03:05:08;;;;;;;11.43;5.25;;;14.60;70.80;;;;;;5116078;28;20035;-78
2022/05/07 03:07:34;;;;;;;11.20;5.43;;;14.70;71.00;;;;;;5080873;28;20412;-79
2022/05/07 03:10:01;;;;;;;10.13;5.68;;;14.60;70.80;;;;;;5116476;28;20374;-79
2022/05/07 03:12:28;;;;;;;11.27;5.40;;;14.70;71.00;;;;;;5096672;28;20050;-79
2022/05/07 03:14:54;;;;;;;9.88;5.30;;;14.60;70.90;;;;;;5098608;28;20171;-79
2022/05/07 03:17:23;;;;;;;9.70;5.20;;;14.60;70.90;;;;;;5097337;28;20036;-76
2022/05/07 03:19:49;;;;;;;9.85;5.40;;;14.60;70.90;;;;;;5081051;28;20031;-76
2022/05/07 03:22:15;;;;;;;12.48;6.78;;;14.60;71.00;;;;;;5097395;28;20039;-79
2022/05/07 03:24:41;;;;;;;11.10;6.78;;;14.60;71.10;;;;;;5115785;28;20118;-76
2022/05/07 03:27:07;;;;;;;14.50;7.32;;;14.60;71.10;;;;;;5096597;28;20482;-79
2022/05/07 03:29:34;;;;;;;11.90;7.28;;;14.60;71.10;;;;;;5097690;28;20036;-76
2022/05/07 03:32:00;;;;;;;19.92;8.70;;;14.60;71.00;;;;;;5115727;28;20039;-79
2022/05/07 03:34:26;;;;;;;17.70;8.70;;;14.60;71.10;;;;;;5115398;28;20086;-76
2022/05/07 03:36:52;;;;;;;14.88;7.90;;;14.60;71.10;;;;;;5097078;28;20484;-76
2022/05/07 03:39:18;;;;;;;16.30;8.52;;;14.60;71.10;;;;;;5097400;28;20381;-79
2022/05/07 03:41:45;;;;;;;15.25;8.18;;;14.60;71.10;;;;;;5096234;28;20127;-79
2022/05/07 03:44:11;;;;;;;13.32;7.70;;;14.60;71.40;;;;;;5080492;28;20085;-79
2022/05/07 03:46:37;;;;;;;15.63;8.65;;;14.60;71.40;;;;;;5115265;28;20089;-76
2022/05/07 03:49:03;;;;;;;13.88;7.78;;;14.60;71.40;;;;;;5115638;28;20039;-79
2022/05/07 03:51:29;;;;;;;;;;;14.60;71.20;;;;;;5097495;28;20035;-76
2022/05/07 03:53:55;;;;;;;18.15;7.50;;;14.60;70.80;;;;;;5080159;28;19968;-76
2022/05/07 03:56:21;;;;;;;12.77;7.20;;;14.60;71.10;;;;;;5115085;28;20023;-79
2022/05/07 03:58:47;;;;;;;14.48;9.10;;;14.70;71.30;;;;;;5114529;28;20044;-76
2022/05/07 04:01:15;;;;;;;13.00;7.47;;;14.70;71.40;;;;;;5096129;28;20039;-76
2022/05/07 04:03:41;;;;;;;13.65;8.00;;;14.60;71.50;;;;;;5115274;28;20289;-76
2022/05/07 04:06:07;;;;;;;;;;;14.60;71.60;;;;;;5097042;28;20415;-79
2022/05/07 04:08:33;;;;;;;14.80;8.18;;;14.60;71.20;;;;;;5115112;28;19922;-79
2022/05/07 04:10:59;;;;;;;21.17;8.48;;;14.60;72.20;;;;;;5096534;28;20030;-76
2022/05/07 04:13:25;;;;;;;17.38;8.70;;;14.60;71.60;;;;;;5095904;28;20047;-79
2022/05/07 04:15:51;;;;;;;17.30;9.82;;;14.60;71.70;;;;;;5096315;28;20030;-80
2022/05/07 04:18:17;;;;;;;;;;;14.60;71.90;;;;;;5115385;28;20046;-76
2022/05/07 04:20:43;;;;;;;16.50;9.20;;;14.60;71.60;;;;;;5075769;28;19912;-76
2022/05/07 04:23:10;;;;;;;21.15;10.98;;;14.50;72.00;;;;;;5094965;28;20480;-76
2022/05/07 04:25:37;;;;;;;23.20;12.57;;;14.60;72.10;;;;;;5094100;28;20060;-76
2022/05/07 04:28:03;;;;;;;31.15;14.48;;;14.60;72.10;;;;;;5085814;28;20076;-76
2022/05/07 04:30:29;;;;;;;33.20;13.20;;;14.60;71.40;;;;;;5114350;28;20069;-76
2022/05/07 04:32:56;;;;;;;;;;;14.70;72.20;;;;;;5115476;28;20097;-80
2022/05/07 04:35:23;;;;;;;17.63;10.43;;;14.60;71.70;;;;;;5096145;28;19920;-80
2022/05/07 04:37:49;;;;;;;23.13;10.57;;;14.60;71.30;;;;;;5079587;28;20388;-76
2022/05/07 04:40:15;;;;;;;17.33;10.63;;;14.70;72.10;;;;;;5095843;28;20096;-76
2022/05/07 04:42:41;;;;;;;19.20;10.88;;;14.70;72.10;;;;;;5095450;28;20046;-76
2022/05/07 04:45:08;;;;;;;;;;;14.80;71.90;;;;;;5096526;28;20032;-80
2022/05/07 04:47:34;;;;;;;15.13;9.10;;;14.80;71.30;;;;;;5096234;28;19994;-76
2022/05/07 04:50:00;;;;;;;18.92;9.63;;;14.80;71.40;;;;;;5096112;28;20032;-76
2022/05/07 04:52:26;;;;;;;13.52;8.32;;;14.80;71.60;;;;;;5095658;28;20150;-79
2022/05/07 04:54:53;;;;;;;22.27;8.73;;;14.90;71.80;;;;;;5096252;28;20027;-80
2022/05/07 04:57:20;;;;;;;19.05;8.75;;;14.90;71.90;;;;;;5113229;28;20067;-77
2022/05/07 04:59:46;;;;;;;;;;;14.90;71.90;;;;;;5096427;28;20081;-80
2022/05/07 05:02:12;;;;;;;15.82;7.50;;;14.90;71.40;;;;;;5095453;28;19943;-80
2022/05/07 05:04:38;;;;;;;16.00;8.18;;;15.00;71.40;;;;;;5079046;28;20385;-80
2022/05/07 05:07:04;;;;;;;16.50;9.18;;;15.00;71.50;;;;;;5113876;28;20083;-76
2022/05/07 05:09:31;;;;;;;12.77;8.15;;;15.00;71.50;;;;;;5114340;28;20043;-80
2022/05/07 05:11:57;;;;;;;29.90;10.25;;;15.10;71.60;;;;;;5094727;28;20024;-80
2022/05/07 05:17:08;;;;;;;14.98;8.70;;;15.10;71.60;;;;;;5098064;28;20054;-76
2022/05/07 05:19:34;;;;;;;17.80;8.82;;;15.10;71.60;;;;;;5095573;28;20105;-76
2022/05/07 05:22:00;;;;;;;13.70;8.25;;;15.10;71.70;;;;;;5095056;28;20401;-76
2022/05/07 05:24:26;;;;;;;18.75;9.00;;;15.20;71.70;;;;;;5113520;28;20516;-76
2022/05/07 05:26:52;;;;;;;15.68;8.70;;;15.20;71.60;;;;;;5078113;28;20311;-80
2022/05/07 05:29:19;;;;;;;14.80;9.32;;;15.30;71.70;;;;;;5094623;28;20043;-76
2022/05/07 05:31:44;;;;;;;;;;;15.30;71.40;;;;;;5095586;28;20150;-75
2022/05/07 05:34:10;;;;;;;21.65;9.40;;;15.40;71.10;;;;;;5095351;28;19915;-79
2022/05/07 05:36:37;;;;;;;20.00;9.82;;;15.40;71.00;;;;;;5094774;28;20464;-80
2022/05/07 05:39:05;;;;;;;22.25;13.48;;;15.50;71.20;;;;;;5095198;28;20492;-76
2022/05/07 05:41:31;;;;;;;28.00;12.90;;;15.40;71.10;;;;;;5095046;28;20392;-76
2022/05/07 05:43:57;;;;;;;22.55;10.57;;;15.50;71.20;;;;;;5094164;28;20058;-80
2022/05/07 05:46:23;;;;;;;15.90;9.65;;;15.60;71.20;;;;;;5113003;28;20390;-75
2022/05/07 05:48:49;;;;;;;22.52;10.85;;;15.60;71.00;;;;;;5095148;28;20066;-79
2022/05/07 05:51:15;;;;;;;16.95;9.48;;;15.60;71.00;;;;;;5094892;28;20039;-76
2022/05/07 05:53:41;;;;;;;15.95;9.57;;;15.70;70.90;;;;;;5095326;28;20032;-75
2022/05/07 05:56:07;;;;;;;14.10;9.05;;;15.80;70.80;;;;;;5094662;28;20036;-80
2022/05/07 05:58:33;;;;;;;16.52;9.75;;;15.80;70.60;;;;;;5112471;28;20039;-79
2022/05/07 06:01:00;;;;;;;;;;;15.90;70.50;;;;;;5095075;28;20067;-75
2022/05/07 06:03:26;;;;;;;17.52;10.80;;;15.90;70.20;;;;;;5112967;28;19920;-80
2022/05/07 06:05:52;;;;;;;15.73;10.10;;;16.00;70.10;;;;;;5094374;28;20040;-75
2022/05/07 06:08:19;;;;;;;20.27;12.30;;;16.00;70.10;;;;;;5112996;28;20043;-80
2022/05/07 06:10:45;;;;;;;20.58;11.85;;;16.20;70.00;;;;;;5112767;28;20035;-80
2022/05/07 06:13:11;;;;;;;15.57;10.52;;;16.20;69.30;;;;;;5077278;28;20085;-80
2022/05/07 06:15:56;;;;;;;16.35;10.20;;;16.30;70.00;;;;;;5112618;28;20031;-75
2022/05/07 06:18:25;;;;;;;17.27;9.45;;;16.30;69.80;;;;;;5112856;28;20057;-80
2022/05/07 06:20:51;;;;;;;16.45;9.90;;;16.40;69.70;;;;;;5094449;28;20035;-80
2022/05/07 06:23:17;;;;;;;15.43;9.38;;;16.40;68.80;;;;;;5094708;28;20032;-76
2022/05/07 06:28:29;;;;;;;16.48;9.25;;;16.60;69.20;;;;;;5100720;28;20050;-81
2022/05/07 06:30:55;;;;;;;;;;;16.60;69.30;;;;;;5098896;28;20072;-76
2022/05/07 06:33:21;;;;;;;12.80;8.68;;;16.70;69.20;;;;;;5098626;28;19915;-79
2022/05/07 06:35:48;;;;;;;;;;;16.70;68.30;;;;;;5098922;28;20400;-76
2022/05/07 06:38:16;;;;;;;14.27;8.47;;;16.70;68.90;;;;;;5081710;28;19924;-80
2022/05/07 06:40:42;;;;;;;17.13;10.13;;;16.70;69.20;;;;;;5081382;28;20493;-76
2022/05/07 06:43:09;;;;;;;16.05;8.90;;;16.80;69.00;;;;;;5080767;28;20484;-80
2022/05/07 06:45:36;;;;;;;15.30;8.43;;;16.80;69.10;;;;;;5114140;28;20032;-80
2022/05/07 06:48:08;;;;;;;;;;;16.80;69.30;;;;;;5097924;28;20068;-75
2022/05/07 06:50:34;;;;;;;14.25;8.68;;;16.80;69.10;;;;;;5078650;28;19916;-76
2022/05/07 06:53:00;;;;;;;13.15;8.05;;;16.80;68.80;;;;;;5078369;28;20028;-80
2022/05/07 06:55:29;;;;;;;13.60;8.57;;;16.90;69.10;;;;;;5077420;28;20040;-76
2022/05/07 06:57:55;;;;;;;13.98;7.78;;;16.90;68.90;;;;;;5061792;28;20039;-80
2022/05/07 07:00:22;;;;;;;12.80;7.50;;;17.00;68.90;;;;;;5113785;28;20035;-80
2022/05/07 07:02:49;;;;;;;16.15;8.23;;;17.00;69.00;;;;;;5116324;28;20040;-75
2022/05/07 07:05:15;;;;;;;13.93;7.53;;;17.00;68.80;;;;;;5116007;28;20096;-75
2022/05/07 07:07:42;;;;;;;13.85;6.93;;;17.10;68.80;;;;;;5098292;28;20070;-79
2022/05/07 07:10:09;;;;;;;13.90;7.10;;;17.10;67.90;;;;;;5116337;28;20040;-80
2022/05/07 07:12:54;;;;;;;15.43;8.02;;;17.20;68.30;;;;;;5098179;28;20063;-80
2022/05/07 07:15:20;;;;;;;16.50;8.73;;;17.30;68.30;;;;;;5096674;28;20031;-76
2022/05/07 07:17:46;;;;;;;;;;;17.40;67.90;;;;;;5098478;28;20032;-79
2022/05/07 07:20:12;;;;;;;13.75;9.00;;;17.40;67.70;;;;;;5111092;28;19973;-76
2022/05/07 07:22:38;;;;;;;12.43;7.78;;;17.50;67.40;;;;;;5095948;28;20043;-76
2022/05/07 07:25:05;;;;;;;14.45;8.77;;;17.50;67.60;;;;;;5093506;28;20044;-75
2022/05/07 07:27:31;;;;;;;16.60;8.98;;;17.60;67.30;;;;;;5084812;28;20089;-78
2022/05/07 07:29:57;;;;;;;;;;;17.60;67.50;;;;;;5063981;28;20040;-79
2022/05/07 07:32:23;;;;;;;16.38;8.70;;;17.70;67.40;;;;;;5093133;28;19939;-75
2022/05/07 07:34:49;;;;;;;12.38;8.48;;;17.70;67.10;;;;;;5065688;28;20136;-79
2022/05/07 07:37:16;;;;;;;18.95;11.10;;;17.80;67.10;;;;;;5058066;28;20439;-79
2022/05/07 07:39:42;;;;;;;15.38;9.55;;;17.80;66.80;;;;;;5071405;28;20093;-76
2022/05/07 07:42:08;;;;;;;15.60;9.32;;;17.90;66.80;;;;;;5059716;28;20032;-79
2022/05/07 07:44:34;;;;;;;19.23;9.88;;;18.00;66.50;;;;;;5093980;28;20044;-75
2022/05/07 07:49:45;;;;;;;21.27;11.20;;;18.10;66.10;;;;;;5095407;28;20515;-79
2022/05/07 07:52:12;;;;;;;22.25;13.40;;;18.20;65.90;;;;;;5094995;28;20374;-75
2022/05/07 07:54:39;;;;;;;21.08;12.18;;;18.20;65.90;;;;;;5077164;28;20032;-75
2022/05/07 07:57:06;;;;;;;21.65;12.15;;;18.30;65.50;;;;;;5059936;28;20044;-75
2022/05/07 07:59:32;;;;;;;21.80;12.60;;;18.40;65.40;;;;;;5059777;28;20489;-79
2022/05/07 08:01:58;;;;;;;18.90;11.00;;;18.40;65.00;;;;;;5074450;28;20036;-76
2022/05/07 08:04:25;;;;;;;21.33;11.90;;;18.50;64.90;;;;;;5074861;28;20037;-74
2022/05/07 08:12:40;;;;;;;15.32;9.43;;;18.70;64.10;;;;;;5073742;28;20488;-80
2022/05/07 08:15:06;;;;;;;;;;;18.80;63.30;;;;;;5067177;28;20114;-76
2022/05/07 08:17:32;;;;;;;19.52;9.10;;;19.00;63.00;;;;;;5076276;28;19916;-79
2022/05/07 08:19:58;;;;;;;17.33;9.20;;;19.20;62.70;;;;;;5094479;28;20388;-79
2022/05/07 08:22:24;;;;;;;14.32;9.63;;;19.30;62.00;;;;;;5094282;28;20036;-76
2022/05/07 08:24:50;;;;;;;23.40;9.82;;;19.40;61.60;;;;;;5068899;28;20513;-79
2022/05/07 08:27:17;;;;;;;13.18;7.53;;;19.50;61.30;;;;;;5079264;28;20401;-75
2022/05/07 08:29:42;;;;;;;;;;;19.60;61.10;;;;;;5096117;28;20071;-76
2022/05/07 08:32:09;;;;;;;23.45;9.65;;;19.70;61.70;;;;;;5096172;28;19919;-76
2022/05/07 08:34:35;;;;;;;12.45;8.10;;;19.70;60.70;;;;;;5096349;28;20042;-79
2022/05/07 08:37:01;;;;;;;11.68;7.65;;;19.80;60.60;;;;;;5096067;28;20036;-76
2022/05/07 08:39:27;;;;;;;14.77;7.82;;;19.80;60.30;;;;;;5114605;28;20565;-76
2022/05/07 08:41:53;;;;;;;;;;;19.90;60.10;;;;;;5114520;28;20039;-76
2022/05/07 08:44:20;;;;;;;14.75;7.40;;;19.90;60.60;;;;;;5078281;28;19981;-76
2022/05/07 08:46:45;;;;;;;;;;;19.90;59.80;;;;;;5095526;28;20069;-79
2022/05/07 08:49:12;;;;;;;14.27;6.63;;;19.90;60.60;;;;;;5114204;28;20319;-79
2022/05/07 08:51:38;;;;;;;19.77;8.50;;;19.90;59.50;;;;;;5095953;28;20116;-79
2022/05/07 08:54:04;;;;;;;;;;;19.90;59.50;;;;;;5096460;28;20118;-80
2022/05/07 08:56:31;;;;;;;15.27;7.35;;;19.80;60.10;;;;;;5114027;28;20361;-76
2022/05/07 08:58:57;;;;;;;;;;;19.80;59.20;;;;;;5114826;28;20070;-76
2022/05/07 09:01:23;;;;;;;20.77;8.15;;;19.70;59.70;;;;;;5094669;28;20275;-79
2022/05/07 09:03:50;;;;;;;;;;;19.70;59.10;;;;;;5079612;28;20118;-75
2022/05/07 09:06:27;;;;;;;12.93;7.22;;;19.60;59.40;;;;;;5113747;28;19969;-75
2022/05/07 09:08:57;;;;;;;11.52;6.55;;;19.60;59.00;;;;;;5078925;28;20126;-76
2022/05/07 09:11:24;;;;;;;8.95;5.38;;;19.60;58.80;;;;;;5095306;28;20472;-75
2022/05/07 09:14:09;;;;;;;13.27;6.75;;;19.60;58.40;;;;;;5078683;28;20043;-80
2022/05/07 09:16:53;;;;;;;12.20;6.05;;;19.50;58.30;;;;;;5074133;28;20401;-81
2022/05/07 09:19:38;;;;;;;17.98;8.48;;;19.60;58.00;;;;;;5093394;28;20538;-80
2022/05/07 09:22:25;;;;;;;14.10;7.30;;;19.50;57.70;;;;;;5091357;28;20044;-80
2022/05/07 09:25:10;;;;;;;13.52;7.40;;;19.60;57.90;;;;;;5092138;28;20052;-76
2022/05/07 09:27:45;;;;;;;19.30;8.48;;;19.50;58.20;;;;;;5093756;28;20445;-80
2022/05/07 09:30:12;;;;;;;14.60;7.03;;;19.70;58.00;;;;;;5080755;28;20035;-76
2022/05/07 09:32:38;;;;;;;;;;;19.80;58.10;;;;;;5095971;28;20383;-75
2022/05/07 09:38:13;;;;;;;15.13;7.53;;;19.90;58.00;;;;;;5098297;28;20051;-79
2022/05/07 09:41:00;;;;;;;15.55;7.40;;;20.00;57.60;;;;;;5094886;28;20100;-76
2022/05/07 09:43:26;;;;;;;14.10;8.10;;;20.20;57.50;;;;;;5095030;28;20043;-80
2022/05/07 09:45:53;;;;;;;13.95;8.27;;;20.40;57.00;;;;;;5073551;28;20496;-80
2022/05/07 09:48:19;;;;;;;17.52;10.00;;;20.50;56.10;;;;;;5074853;28;20066;-80
2022/05/07 09:50:45;;;;;;;13.40;8.02;;;20.70;56.10;;;;;;5092654;28;20107;-80
2022/05/07 09:58:47;;;;;;;12.18;7.30;;;21.10;54.60;;;;;;5077649;28;20173;-76
2022/05/07 10:01:51;;;;;;;15.02;7.68;;;21.10;54.70;;;;;;5073601;28;20476;-79
2022/05/07 10:05:13;;;;;;;16.38;7.70;;;21.10;54.70;;;;;;5074688;28;20055;-76
2022/05/07 10:08:36;;;;;;;12.65;7.60;;;21.20;54.80;;;;;;5074638;28;20388;-80
2022/05/07 10:11:04;;;;;;;20.98;8.63;;;21.20;54.70;;;;;;5092426;28;20489;-80
2022/05/07 10:13:30;;;;;;;26.60;9.82;;;21.30;54.00;;;;;;5074750;28;20503;-80
2022/05/07 10:16:20;;;;;;;18.73;9.82;;;21.40;54.00;;;;;;5101199;28;20040;-80
2022/05/07 10:18:46;;;;;;;15.40;8.43;;;21.50;54.00;;;;;;5094725;28;20044;-80
2022/05/07 10:21:32;;;;;;;;;;;21.60;53.60;;;;;;5077640;28;20483;-76
2022/05/07 10:23:58;;;;;;;12.40;8.65;;;21.70;54.10;;;;;;5112488;28;19920;-75
2022/05/07 10:26:38;;;;;;;;;;;21.70;53.10;;;;;;5094816;28;20024;-75
2022/05/07 10:29:26;;;;;;;20.48;7.65;;;21.70;53.70;;;;;;5077796;28;19961;-76
2022/05/07 10:32:22;;;;;;;13.18;9.13;;;21.60;52.80;;;;;;5111846;28;20040;-76
2022/05/07 10:35:07;;;;;;;11.18;7.22;;;21.60;53.00;;;;;;5095026;28;20054;-75
2022/05/07 10:38:17;;;;;;;10.60;6.85;;;21.60;52.20;;;;;;5094245;28;20072;-76
2022/05/07 10:41:04;;;;;;;12.05;7.65;;;21.60;52.40;;;;;;5112470;28;20484;-75
2022/05/07 10:46:21;;;;;;;19.73;9.10;;;21.60;52.90;;;;;;5111482;28;19937;-80
2022/05/07 10:49:07;;;;;;;12.63;7.75;;;21.50;52.70;;;;;;5112640;28;20058;-75
2022/05/07 10:52:03;;;;;;;14.02;7.13;;;21.50;52.40;;;;;;5093882;28;20451;-76
2022/05/07 10:54:29;;;;;;;17.02;7.63;;;21.50;52.60;;;;;;5077341;28;20039;-75
2022/05/07 10:56:56;;;;;;;;;;;21.50;51.80;;;;;;5112818;28;20127;-80
2022/05/07 11:02:12;;;;;;;17.33;8.13;;;21.50;52.00;;;;;;5095957;28;20046;-75
2022/05/07 11:04:56;;;;;;;;;;;21.40;52.30;;;;;;5094887;28;20031;-75
2022/05/07 11:07:22;;;;;;;12.95;8.05;;;21.30;52.80;;;;;;5093897;28;19922;-80
2022/05/07 11:09:50;;;;;;;13.27;9.00;;;21.20;52.80;;;;;;5077553;28;20028;-80
2022/05/07 11:12:17;;;;;;;13.73;7.70;;;21.00;52.20;;;;;;5098008;28;20031;-75
2022/05/07 11:14:43;;;;;;;12.57;7.40;;;20.90;53.00;;;;;;5098210;28;20028;-80
2022/05/07 11:17:10;;;;;;;;;;;20.80;53.20;;;;;;5097237;28;20028;-75
2022/05/07 11:19:38;;;;;;;13.38;7.53;;;20.70;53.50;;;;;;5081091;28;19920;-75
2022/05/07 11:22:08;;;;;;;13.18;7.72;;;20.60;53.40;;;;;;5097366;28;20051;-80
2022/05/07 11:24:34;;;;;;;15.38;7.38;;;20.50;53.60;;;;;;5097987;28;20085;-75
2022/05/07 11:27:03;;;;;;;;;;;20.40;54.10;;;;;;5097730;28;20392;-75
2022/05/07 11:29:30;;;;;;;21.52;10.05;;;20.40;53.80;;;;;;5097868;28;19919;-80
2022/05/07 11:32:14;;;;;;;12.88;7.95;;;20.40;54.20;;;;;;5096452;28;20067;-75
2022/05/07 11:34:42;;;;;;;12.43;8.55;;;20.40;54.60;;;;;;5115831;28;20038;-75
2022/05/07 11:37:27;;;;;;;14.80;9.05;;;20.30;54.60;;;;;;5097008;28;20063;-79
2022/05/07 11:40:14;;;;;;;13.88;9.48;;;20.20;55.10;;;;;;5097544;28;20488;-75
2022/05/07 11:45:44;;;;;;;16.77;11.25;;;20.00;55.80;;;;;;5114392;28;20088;-80
2022/05/07 11:48:13;;;;;;;18.70;11.20;;;20.00;56.00;;;;;;5097228;28;20024;-80
2022/05/07 11:50:49;;;;;;;17.42;10.77;;;20.10;56.30;;;;;;5115281;28;20526;-75
2022/05/07 11:53:19;;;;;;;14.45;9.02;;;20.10;56.40;;;;;;5114968;28;20077;-76
2022/05/07 11:55:46;;;;;;;16.55;10.45;;;20.20;56.00;;;;;;5096798;28;20031;-80
2022/05/07 11:58:20;;;;;;;16.27;10.05;;;20.20;56.00;;;;;;5097591;28;20029;-80
2022/05/07 12:01:16;;;;;;;14.00;9.48;;;20.30;56.00;;;;;;5079679;28;20055;-76
2022/05/07 12:03:42;;;;;;;20.25;10.38;;;20.30;56.10;;;;;;5097090;28;20061;-75
2022/05/07 12:06:08;;;;;;;;;;;20.40;55.90;;;;;;5080199;28;20043;-81
2022/05/07 12:08:35;;;;;;;23.08;16.58;;;20.50;55.00;;;;;;5097129;28;19964;-75
2022/05/07 12:11:02;;;;;;;19.08;14.15;;;20.50;55.00;;;;;;5114914;28;20395;-81
2022/05/07 12:13:29;;;;;;;15.98;9.40;;;20.50;55.30;;;;;;5096979;28;20111;-76
2022/05/07 12:18:47;;;;;;;20.08;10.20;;;20.50;56.20;;;;;;5094866;28;20511;-76
2022/05/07 12:21:13;;;;;;;12.25;8.15;;;20.60;56.10;;;;;;5114231;28;20035;-80
2022/05/07 12:31:55;;;;;;;13.75;8.27;;;20.50;55.90;;;;;;5098212;28;20062;-80
2022/05/07 12:34:21;;;;;;;17.05;8.15;;;20.60;55.70;;;;;;5096750;28;20070;-80
2022/05/07 12:36:48;;;;;;;12.95;7.78;;;20.70;55.70;;;;;;5079129;28;20035;-75
2022/05/07 12:39:14;;;;;;;14.05;8.45;;;20.90;55.30;;;;;;5114670;28;20397;-80
2022/05/07 12:41:41;;;;;;;;;;;21.00;55.60;;;;;;5096493;28;20059;-80
2022/05/07 12:44:07;;;;;;;13.25;8.30;;;21.00;54.80;;;;;;5096408;28;19923;-80
2022/05/07 12:46:33;;;;;;;12.43;7.88;;;21.00;54.60;;;;;;5094990;28;20036;-75
2022/05/07 12:48:59;;;;;;;;;;;21.00;54.80;;;;;;5096684;28;20028;-80
2022/05/07 12:51:27;;;;;;;12.27;8.13;;;20.70;55.40;;;;;;5095814;28;20432;-75
2022/05/07 12:54:11;;;;;;;12.43;7.43;;;20.60;55.70;;;;;;5079427;28;20093;-76
2022/05/07 12:56:38;;;;;;;12.45;7.68;;;20.50;56.10;;;;;;5095668;28;20065;-76
2022/05/07 12:59:03;;;;;;;;;;;20.40;56.20;;;;;;5096559;28;20057;-75
2022/05/07 13:01:30;;;;;;;14.63;8.15;;;20.40;56.10;;;;;;5094757;28;19919;-80
2022/05/07 13:03:56;;;;;;;;;;;20.40;56.50;;;;;;5096403;28;20050;-76
2022/05/07 13:06:22;;;;;;;11.27;7.25;;;20.40;56.30;;;;;;5113643;28;19911;-80
2022/05/07 13:08:48;;;;;;;13.15;7.80;;;20.40;56.50;;;;;;5095838;28;20422;-76
2022/05/07 13:11:14;;;;;;;;;;;20.40;56.50;;;;;;5114322;28;20062;-80
2022/05/07 13:13:40;;;;;;;12.00;7.43;;;20.40;56.30;;;;;;5078711;28;19920;-80
2022/05/07 13:16:07;;;;;;;;;;;20.40;56.50;;;;;;5095837;28;20057;-80
2022/05/07 13:18:35;;;;;;;11.00;6.40;;;20.40;56.20;;;;;;5094961;28;20014;-79
2022/05/07 13:21:01;;;;;;;12.10;6.93;;;20.40;56.30;;;;;;5095363;28;20036;-80
2022/05/07 13:23:27;;;;;;;10.82;7.18;;;20.40;56.50;;;;;;5095515;28;20479;-76
2022/05/07 13:25:53;;;;;;;;;;;20.40;56.40;;;;;;5095848;28;20056;-76
2022/05/07 13:28:19;;;;;;;8.88;5.68;;;20.40;56.20;;;;;;5095963;28;19920;-80
2022/05/07 13:30:47;;;;;;;12.15;6.78;;;20.50;55.80;;;;;;5095123;28;20044;-76
2022/05/07 13:33:14;;;;;;;21.20;7.60;;;20.60;55.70;;;;;;5093979;28;20398;-80
2022/05/07 13:35:39;;;;;;;;;;;20.70;55.40;;;;;;5078591;28;20392;-76
2022/05/07 13:38:06;;;;;;;12.13;5.78;;;20.80;55.10;;;;;;5095331;28;19922;-76
2022/05/07 13:40:33;;;;;;;12.50;6.35;;;21.00;54.50;;;;;;5078139;28;20500;-76
2022/05/07 13:43:02;;;;;;;;;;;21.00;54.10;;;;;;5078932;28;20032;-76